Time;durP1;ratioP1;P1;durP2;ratioP2;P2;SDS_P1;SDS_P2;PMS_P1;PMS_P2;Temp;Humidity;BMP_temperature;BMP_pressure;BME280_temperature;BME280_humidity;BME280_pressure;Samples;Min_cycle;Max_cycle;Signal;HPM_P1;HPM_P2
2022/01/10 00:02:22;;;;;;;2.10;1.88;;;1.70;99.90;;;;;;4950775;29;20035;-76
2022/01/10 00:04:47;;;;;;;4.63;2.38;;;1.70;99.90;;;;;;4951402;29;20059;-76
2022/01/10 00:07:13;;;;;;;4.72;1.98;;;1.70;99.90;;;;;;4951184;28;20034;-76
2022/01/10 00:09:39;;;;;;;7.13;4.18;;;1.70;99.90;;;;;;4951294;28;20030;-76
2022/01/10 00:12:05;;;;;;;6.85;2.47;;;1.70;99.90;;;;;;4951601;28;20044;-76
2022/01/10 00:14:31;;;;;;;3.95;2.65;;;1.70;99.90;;;;;;4951602;28;20930;-76
2022/01/10 00:16:56;;;;;;;4.60;2.33;;;1.70;99.90;;;;;;4965898;28;20027;-76
2022/01/10 00:19:22;;;;;;;3.22;2.45;;;1.70;99.90;;;;;;4949658;29;20077;-76
2022/01/10 00:21:48;;;;;;;3.47;2.40;;;1.70;99.90;;;;;;4949217;29;20030;-77
2022/01/10 00:24:14;;;;;;;6.35;2.60;;;1.70;99.90;;;;;;4948823;28;20039;-76
2022/01/10 00:26:40;;;;;;;4.57;2.85;;;1.70;99.90;;;;;;4949375;28;20484;-76
2022/01/10 00:29:05;;;;;;;4.25;2.13;;;1.70;99.90;;;;;;4949039;28;20031;-76
2022/01/10 00:31:31;;;;;;;4.88;2.42;;;1.70;99.90;;;;;;4948494;29;20297;-76
2022/01/10 00:33:56;;;;;;;4.70;2.70;;;1.70;99.90;;;;;;4949851;29;20019;-76
2022/01/10 00:36:22;;;;;;;4.25;2.50;;;1.70;99.90;;;;;;4950176;29;20117;-76
2022/01/10 00:38:48;;;;;;;4.57;2.45;;;1.70;99.90;;;;;;4949620;28;20034;-76
2022/01/10 00:41:14;;;;;;;5.45;3.42;;;1.70;99.90;;;;;;4949900;29;20043;-76
2022/01/10 00:43:45;;;;;;;5.55;2.30;;;1.70;99.90;;;;;;4949740;29;20035;-76
2022/01/10 00:46:11;;;;;;;3.58;2.50;;;1.70;99.90;;;;;;4950038;28;20155;-76
2022/01/10 00:48:40;;;;;;;11.80;4.18;;;1.70;99.90;;;;;;4950486;28;20031;-76
2022/01/10 00:51:06;;;;;;;2.80;2.20;;;1.70;99.90;;;;;;4965360;28;20031;-76
2022/01/10 00:53:31;;;;;;;5.18;2.70;;;1.70;99.90;;;;;;4949031;28;20085;-76
2022/01/10 00:55:57;;;;;;;4.80;3.38;;;1.70;99.90;;;;;;4950277;29;20027;-76
2022/01/10 00:58:23;;;;;;;6.05;3.08;;;1.70;99.90;;;;;;4950200;29;20387;-76
2022/01/10 01:00:51;;;;;;;7.63;3.55;;;1.70;99.90;;;;;;4949523;29;20030;-76
2022/01/10 01:03:17;;;;;;;4.18;2.38;;;1.70;99.90;;;;;;4932588;29;20407;-76
2022/01/10 01:05:44;;;;;;;5.20;3.00;;;1.60;99.90;;;;;;4950285;29;20027;-76
2022/01/10 01:08:11;;;;;;;3.60;1.95;;;1.60;99.90;;;;;;4950105;29;20023;-76
2022/01/10 01:16:09;;;;;;;8.13;3.13;;;1.60;99.90;;;;;;4949660;29;20391;-76
2022/01/10 01:24:03;;;;;;;6.30;2.80;;;1.60;99.90;;;;;;4950219;29;20403;-77
2022/01/10 01:26:31;;;;;;;10.32;3.00;;;1.60;99.90;;;;;;4949679;29;20114;-76
2022/01/10 01:28:57;;;;;;;5.15;2.78;;;1.60;99.90;;;;;;4949667;29;20034;-76
2022/01/10 01:31:22;;;;;;;5.93;3.55;;;1.60;99.90;;;;;;4949365;29;20023;-77
2022/01/10 01:33:48;;;;;;;6.68;3.13;;;1.60;99.90;;;;;;4951989;29;20042;-76
2022/01/10 01:36:17;;;;;;;6.30;2.97;;;1.60;99.90;;;;;;4949055;28;20024;-76
2022/01/10 01:38:42;;;;;;;4.78;2.40;;;1.60;99.90;;;;;;4949551;29;20054;-76
2022/01/10 01:41:54;;;;;;;4.40;3.08;;;1.60;99.90;;;;;;4949092;29;20059;-76
2022/01/10 01:43:55;;;;;;;4.25;2.47;;;1.60;99.90;;;;;;4942154;29;20101;-76
2022/01/10 01:46:21;;;;;;;10.40;3.88;;;1.70;99.90;;;;;;4949300;29;20043;-76
2022/01/10 01:48:48;;;;;;;5.15;2.90;;;1.70;99.90;;;;;;4949636;29;20027;-76
2022/01/10 01:51:14;;;;;;;7.05;3.95;;;1.60;99.90;;;;;;4949381;29;20523;-76
2022/01/10 01:53:41;;;;;;;6.22;3.08;;;1.60;99.90;;;;;;4949522;29;20036;-76
2022/01/10 01:56:09;;;;;;;6.10;2.40;;;1.60;99.90;;;;;;4949285;29;20038;-76
2022/01/10 01:58:37;;;;;;;6.47;2.65;;;1.60;99.90;;;;;;4949301;28;20075;-77
2022/01/10 02:01:04;;;;;;;4.45;2.78;;;1.60;99.90;;;;;;4948990;28;20110;-77
2022/01/10 02:03:33;;;;;;;5.32;2.38;;;1.60;99.90;;;;;;4949329;28;20035;-76
2022/01/10 02:05:58;;;;;;;5.00;2.75;;;1.60;99.90;;;;;;4949508;28;20078;-76
2022/01/10 02:08:24;;;;;;;5.63;3.58;;;1.60;99.90;;;;;;4949529;28;20027;-76
2022/01/10 02:10:50;;;;;;;12.00;2.53;;;1.50;99.90;;;;;;4949206;29;20474;-76
2022/01/10 02:13:15;;;;;;;3.75;3.05;;;3.10;99.90;;;;;;4964058;28;20484;-76
2022/01/10 02:16:05;;;;;;;3.13;1.67;;;1.50;99.90;;;;;;4949644;29;20454;-76
2022/01/10 02:18:31;;;;;;;5.00;2.95;;;1.40;99.90;;;;;;4949033;28;20055;-76
2022/01/10 02:21:00;;;;;;;3.65;2.10;;;1.40;99.90;;;;;;4949777;28;20046;-76
2022/01/10 02:23:29;;;;;;;5.43;2.93;;;1.40;99.90;;;;;;4948998;28;20039;-76
2022/01/10 02:25:55;;;;;;;5.00;2.47;;;1.30;99.90;;;;;;4949082;29;20020;-76
2022/01/10 02:28:22;;;;;;;4.82;2.50;;;1.30;99.90;;;;;;4948849;28;20031;-76
2022/01/10 02:30:55;;;;;;;5.05;2.53;;;1.30;99.90;;;;;;4949066;28;20027;-76
2022/01/10 02:33:21;;;;;;;6.47;2.13;;;1.20;99.90;;;;;;4948679;28;20039;-76
2022/01/10 02:36:01;;;;;;;2.75;2.20;;;1.20;99.90;;;;;;4949370;28;20094;-76
2022/01/10 02:38:27;;;;;;;4.07;1.95;;;1.20;99.90;;;;;;4949276;28;20047;-76
2022/01/10 02:40:53;;;;;;;5.80;2.65;;;1.30;99.90;;;;;;4949277;28;20023;-76
2022/01/10 02:43:19;;;;;;;4.45;3.03;;;1.10;99.90;;;;;;4949011;28;20193;-75
2022/01/10 02:45:46;;;;;;;3.10;2.30;;;1.10;99.90;;;;;;4948462;29;20132;-76
2022/01/10 02:48:12;;;;;;;3.65;1.83;;;1.00;99.90;;;;;;4950825;28;20038;-76
2022/01/10 02:50:38;;;;;;;4.55;2.90;;;1.00;99.90;;;;;;4951262;29;20170;-76
2022/01/10 02:53:04;;;;;;;9.35;3.05;;;1.30;99.90;;;;;;4952786;29;20126;-76
2022/01/10 02:55:29;;;;;;;4.65;2.72;;;1.20;99.90;;;;;;4967158;28;20446;-76
2022/01/10 02:57:55;;;;;;;5.22;2.22;;;1.30;99.90;;;;;;4953076;29;20471;-76
2022/01/10 03:00:24;;;;;;;6.22;2.85;;;1.00;99.90;;;;;;4952048;29;20030;-76
2022/01/10 03:02:52;;;;;;;3.20;2.40;;;1.00;99.90;;;;;;4952012;29;20031;-75
2022/01/10 03:05:20;;;;;;;4.53;2.13;;;1.00;99.90;;;;;;4953050;29;20027;-76
2022/01/10 03:07:47;;;;;;;4.05;2.17;;;0.90;99.90;;;;;;4952377;29;20038;-76
2022/01/10 03:10:12;;;;;;;3.92;3.10;;;0.90;99.90;;;;;;4934122;29;20034;-76
2022/01/10 03:12:38;;;;;;;5.70;3.38;;;1.00;99.90;;;;;;4934970;29;20437;-76
2022/01/10 03:15:07;;;;;;;4.22;2.20;;;1.20;99.90;;;;;;4952327;29;20022;-76
2022/01/10 03:17:33;;;;;;;5.70;2.10;;;1.00;99.90;;;;;;4951536;29;20091;-76
2022/01/10 03:19:59;;;;;;;4.05;2.30;;;1.00;99.90;;;;;;4951626;29;20050;-76
2022/01/10 03:22:26;;;;;;;7.43;2.50;;;1.10;99.90;;;;;;4951773;29;20471;-75
2022/01/10 03:24:53;;;;;;;4.28;2.08;;;1.10;99.90;;;;;;4952394;29;20074;-75
2022/01/10 03:27:19;;;;;;;4.40;1.83;;;1.20;99.90;;;;;;4952302;29;20114;-76
2022/01/10 03:29:44;;;;;;;3.30;2.80;;;1.20;99.90;;;;;;4933850;29;20432;-76
2022/01/10 03:32:11;;;;;;;4.45;2.28;;;1.40;99.90;;;;;;4951596;29;20023;-76
2022/01/10 03:34:37;;;;;;;5.50;2.53;;;1.20;99.90;;;;;;4934506;29;20034;-76
2022/01/10 03:37:03;;;;;;;4.50;2.47;;;1.40;99.90;;;;;;4951846;29;20051;-76
2022/01/10 03:39:29;;;;;;;5.45;2.58;;;1.30;99.90;;;;;;4951254;29;20035;-75
2022/01/10 03:41:54;;;;;;;3.25;2.65;;;1.30;99.90;;;;;;4951561;29;20027;-76
2022/01/10 03:44:20;;;;;;;7.22;3.03;;;1.30;99.90;;;;;;4934280;29;20039;-76
2022/01/10 03:46:47;;;;;;;4.72;2.47;;;1.50;99.90;;;;;;4951753;29;20057;-76
2022/01/10 03:49:14;;;;;;;3.15;1.67;;;1.30;99.90;;;;;;4951236;29;20526;-76
2022/01/10 03:51:39;;;;;;;4.40;2.45;;;1.30;99.90;;;;;;4951236;29;20027;-76
2022/01/10 03:54:05;;;;;;;7.78;2.40;;;1.40;99.90;;;;;;4951586;29;20090;-76
2022/01/10 03:56:32;;;;;;;4.75;2.30;;;1.40;99.90;;;;;;4951495;29;20035;-76
2022/01/10 03:58:58;;;;;;;5.78;2.40;;;1.40;99.90;;;;;;4950212;28;20499;-76
2022/01/10 04:01:24;;;;;;;5.53;2.53;;;1.40;99.90;;;;;;4950832;28;20055;-76
2022/01/10 04:03:52;;;;;;;5.43;1.73;;;1.40;99.90;;;;;;4951806;28;20488;-76
2022/01/10 04:06:18;;;;;;;3.83;2.30;;;1.40;99.90;;;;;;4950672;28;20074;-75
2022/01/10 04:08:43;;;;;;;2.80;1.90;;;1.40;99.90;;;;;;4949645;29;20484;-76
2022/01/10 04:11:09;;;;;;;1.98;1.23;;;1.40;99.90;;;;;;4950989;29;20452;-76
2022/01/10 04:13:35;;;;;;;3.65;2.20;;;1.40;99.90;;;;;;4951107;28;20047;-76
2022/01/10 04:16:01;;;;;;;2.15;1.67;;;1.40;99.90;;;;;;4950894;29;20126;-76
2022/01/10 04:18:26;;;;;;;5.32;1.95;;;1.40;99.90;;;;;;4950189;29;20055;-76
2022/01/10 04:20:52;;;;;;;3.05;1.70;;;1.50;99.90;;;;;;4950984;29;20027;-76
2022/01/10 04:23:18;;;;;;;2.75;1.73;;;1.50;99.90;;;;;;4950911;29;20035;-76
2022/01/10 04:25:45;;;;;;;2.22;1.40;;;1.50;99.90;;;;;;4950769;29;20308;-75
2022/01/10 04:28:11;;;;;;;5.88;2.20;;;-0.20;99.90;;;;;;4965677;28;20070;-76
2022/01/10 04:30:37;;;;;;;1.77;1.45;;;1.70;99.90;;;;;;4950060;29;20070;-76
2022/01/10 04:33:03;;;;;;;4.47;1.73;;;1.80;99.90;;;;;;4951353;28;20031;-76
2022/01/10 04:35:31;;;;;;;4.82;2.08;;;1.70;99.90;;;;;;4950541;29;20030;-76
2022/01/10 04:37:57;;;;;;;2.63;2.17;;;1.60;99.90;;;;;;4950672;28;20500;-77
2022/01/10 04:40:24;;;;;;;2.05;1.48;;;1.60;99.90;;;;;;4949761;28;20024;-76
2022/01/10 04:42:50;;;;;;;3.45;1.67;;;1.60;99.90;;;;;;4949020;29;20392;-77
2022/01/10 04:45:16;;;;;;;3.03;1.67;;;1.60;99.90;;;;;;4950537;28;20024;-76
2022/01/10 04:47:42;;;;;;;3.90;2.28;;;1.60;99.90;;;;;;4950087;28;20086;-76
2022/01/10 04:52:47;;;;;;;3.55;1.67;;;1.60;99.90;;;;;;4950602;28;20032;-76
2022/01/10 04:55:13;;;;;;;3.90;1.77;;;1.50;99.90;;;;;;4950114;28;20035;-76
2022/01/10 04:57:39;;;;;;;7.15;2.20;;;1.60;99.90;;;;;;4950428;28;20020;-76
2022/01/10 05:00:07;;;;;;;2.65;1.52;;;1.70;99.90;;;;;;4949078;29;20050;-76
2022/01/10 05:02:33;;;;;;;8.75;1.98;;;1.70;99.90;;;;;;4949435;29;20169;-76
2022/01/10 05:04:59;;;;;;;1.88;1.40;;;1.70;99.90;;;;;;4950428;29;20396;-77
2022/01/10 05:07:24;;;;;;;5.22;1.50;;;1.70;99.90;;;;;;4949702;29;20085;-76
2022/01/10 05:09:50;;;;;;;3.40;1.58;;;1.70;99.90;;;;;;4949930;29;20494;-76
2022/01/10 05:12:16;;;;;;;4.90;1.80;;;1.60;99.90;;;;;;4949709;28;20465;-77
2022/01/10 05:14:42;;;;;;;3.08;1.45;;;1.60;99.90;;;;;;4949955;29;20106;-76
2022/01/10 05:17:07;;;;;;;2.33;1.63;;;1.50;99.90;;;;;;4949165;29;20468;-76
2022/01/10 05:19:33;;;;;;;8.85;3.75;;;1.50;99.90;;;;;;4949263;29;20216;-76
2022/01/10 05:21:59;;;;;;;2.45;1.77;;;1.60;99.90;;;;;;4949977;29;20027;-77
2022/01/10 05:24:24;;;;;;;3.45;1.63;;;1.50;99.90;;;;;;4949053;29;20038;-76
2022/01/10 05:26:50;;;;;;;4.68;1.85;;;1.60;99.90;;;;;;4950326;29;20030;-76
2022/01/10 05:29:16;;;;;;;2.67;1.65;;;1.60;99.90;;;;;;4950769;29;20387;-76
2022/01/10 05:31:42;;;;;;;2.42;1.90;;;1.50;99.90;;;;;;4949578;29;20055;-79
2022/01/10 05:34:07;;;;;;;5.75;1.95;;;1.60;99.90;;;;;;4933735;29;20059;-78
2022/01/10 05:36:33;;;;;;;2.67;1.83;;;1.60;99.90;;;;;;4950890;29;20032;-79
2022/01/10 05:38:59;;;;;;;5.53;2.08;;;1.60;99.90;;;;;;4950702;29;20288;-77
2022/01/10 05:41:25;;;;;;;4.90;2.20;;;1.60;99.90;;;;;;4932359;29;20106;-77
2022/01/10 05:43:51;;;;;;;5.78;2.45;;;1.60;99.90;;;;;;4949953;29;20039;-77
2022/01/10 05:46:19;;;;;;;7.88;2.53;;;1.60;99.90;;;;;;4949253;29;20023;-77
2022/01/10 05:48:47;;;;;;;3.45;2.78;;;1.60;99.90;;;;;;4949626;29;20027;-75
2022/01/10 05:51:15;;;;;;;6.60;2.67;;;1.60;99.90;;;;;;4949969;29;20028;-77
2022/01/10 05:53:41;;;;;;;5.32;2.17;;;3.40;99.90;;;;;;4932769;29;20240;-77
2022/01/10 05:56:07;;;;;;;2.88;2.00;;;1.60;99.90;;;;;;4949549;29;20106;-77
2022/01/10 05:58:33;;;;;;;6.93;3.08;;;1.60;99.90;;;;;;4931208;29;20031;-78
2022/01/10 06:00:58;;;;;;;5.50;2.47;;;1.60;99.90;;;;;;4931819;29;20023;-76
2022/01/10 06:03:24;;;;;;;5.57;1.80;;;1.60;99.90;;;;;;4948658;29;20408;-76
2022/01/10 06:05:50;;;;;;;3.00;2.25;;;1.30;99.90;;;;;;4949513;29;20058;-76
2022/01/10 06:08:15;;;;;;;7.63;3.15;;;1.60;99.90;;;;;;4949471;29;20467;-76
2022/01/10 06:10:41;;;;;;;4.20;2.15;;;1.60;99.90;;;;;;4950132;29;20151;-76
2022/01/10 06:13:07;;;;;;;5.53;2.08;;;1.60;99.90;;;;;;4950389;29;20035;-76
2022/01/10 06:15:33;;;;;;;6.13;2.75;;;1.60;99.90;;;;;;4949444;29;20267;-75
2022/01/10 06:17:59;;;;;;;4.25;2.17;;;1.50;99.90;;;;;;4950995;29;20055;-74
2022/01/10 06:20:25;;;;;;;4.13;2.95;;;1.50;99.90;;;;;;4950450;29;20465;-76
2022/01/10 06:22:51;;;;;;;3.88;2.08;;;1.60;99.90;;;;;;4950981;28;20036;-75
2022/01/10 06:25:20;;;;;;;8.45;2.72;;;1.60;99.90;;;;;;4934710;29;20039;-75
2022/01/10 06:27:46;;;;;;;5.03;3.35;;;1.60;99.90;;;;;;4953015;29;20035;-75
2022/01/10 06:30:12;;;;;;;7.80;2.60;;;1.70;99.90;;;;;;4952945;29;20019;-74
2022/01/10 06:32:38;;;;;;;8.80;3.42;;;1.90;99.90;;;;;;4955687;29;20067;-76
2022/01/10 06:35:04;;;;;;;5.82;3.00;;;1.90;99.90;;;;;;4963832;29;20019;-76
2022/01/10 06:37:31;;;;;;;5.13;2.67;;;1.90;99.90;;;;;;4958585;29;20409;-75
2022/01/10 06:39:57;;;;;;;5.80;2.67;;;1.90;99.90;;;;;;4958399;29;20031;-75
2022/01/10 06:42:22;;;;;;;6.65;2.83;;;1.90;99.90;;;;;;4952092;29;20016;-75
2022/01/10 06:44:48;;;;;;;6.32;3.63;;;2.00;99.90;;;;;;4957645;29;20019;-75
2022/01/10 06:47:14;;;;;;;13.65;3.53;;;1.90;99.90;;;;;;4951396;29;20122;-75
2022/01/10 06:49:40;;;;;;;5.68;3.25;;;1.90;99.90;;;;;;4951721;29;20035;-75
2022/01/10 06:52:06;;;;;;;4.82;2.55;;;1.90;99.90;;;;;;4953327;29;20098;-75
2022/01/10 06:54:32;;;;;;;7.03;2.60;;;2.00;99.90;;;;;;4954059;29;20031;-76
2022/01/10 06:56:58;;;;;;;5.10;2.65;;;2.10;99.90;;;;;;4951093;29;20054;-76
2022/01/10 06:59:27;;;;;;;5.07;2.60;;;2.10;99.90;;;;;;4952151;28;20114;-76
2022/01/10 07:01:56;;;;;;;4.15;2.05;;;2.10;99.90;;;;;;4952136;28;20167;-75
2022/01/10 07:04:22;;;;;;;3.72;2.03;;;2.00;99.90;;;;;;4952470;28;20610;-76
2022/01/10 07:06:48;;;;;;;5.10;2.92;;;2.00;99.90;;;;;;4951443;29;20379;-76
2022/01/10 07:09:14;;;;;;;4.15;2.40;;;1.90;99.90;;;;;;4955603;28;20037;-75
2022/01/10 07:11:40;;;;;;;5.20;2.92;;;1.80;99.90;;;;;;4952986;28;20031;-76
2022/01/10 07:14:07;;;;;;;4.68;2.72;;;1.80;99.90;;;;;;4967401;28;20031;-77
2022/01/10 07:16:34;;;;;;;6.68;3.80;;;1.80;99.90;;;;;;4952144;28;20114;-77
2022/01/10 07:19:00;;;;;;;7.53;3.17;;;1.70;99.90;;;;;;4951669;28;20072;-77
2022/01/10 07:21:26;;;;;;;5.70;3.50;;;1.80;99.90;;;;;;4950457;28;20085;-77
2022/01/10 07:23:51;;;;;;;7.90;3.35;;;1.80;99.90;;;;;;4951010;29;20483;-77
2022/01/10 07:26:17;;;;;;;3.78;2.30;;;1.90;99.90;;;;;;4951897;29;20023;-77
2022/01/10 07:28:43;;;;;;;4.80;2.58;;;2.00;99.90;;;;;;4951733;28;20027;-77
2022/01/10 07:31:09;;;;;;;5.65;2.97;;;2.10;99.90;;;;;;4951170;29;20078;-77
2022/01/10 07:33:35;;;;;;;3.38;1.77;;;2.10;99.90;;;;;;4947928;28;20038;-76
2022/01/10 07:36:02;;;;;;;4.25;2.80;;;2.10;99.90;;;;;;4949897;28;20030;-77
2022/01/10 07:38:27;;;;;;;5.28;2.55;;;2.00;99.90;;;;;;4950272;28;20039;-77
2022/01/10 07:40:53;;;;;;;3.58;2.30;;;2.10;99.90;;;;;;4950279;29;20373;-77
2022/01/10 07:43:19;;;;;;;5.22;2.50;;;2.00;99.90;;;;;;4948871;29;20035;-77
2022/01/10 07:45:45;;;;;;;2.72;1.95;;;2.10;99.90;;;;;;4950939;28;20097;-77
2022/01/10 07:48:11;;;;;;;7.78;3.47;;;2.10;99.90;;;;;;4951002;29;20519;-77
2022/01/10 07:50:36;;;;;;;3.78;2.42;;;2.00;99.90;;;;;;4951929;29;20033;-77
2022/01/10 07:53:02;;;;;;;6.60;3.53;;;2.10;99.90;;;;;;4952249;29;20031;-77
2022/01/10 07:55:28;;;;;;;7.65;3.05;;;2.10;99.90;;;;;;4966417;28;20028;-77
2022/01/10 07:57:54;;;;;;;9.07;3.30;;;2.00;99.90;;;;;;4951629;29;20035;-77
2022/01/10 08:00:19;;;;;;;4.65;2.30;;;2.00;99.90;;;;;;4951112;29;20372;-77
2022/01/10 08:02:45;;;;;;;9.82;3.92;;;1.90;99.90;;;;;;4952453;29;20071;-77
2022/01/10 08:05:11;;;;;;;5.68;3.17;;;1.90;99.90;;;;;;4951860;29;20112;-77
2022/01/10 08:07:37;;;;;;;5.65;2.58;;;1.90;99.90;;;;;;4950949;29;20106;-76
2022/01/10 08:10:07;;;;;;;3.17;2.55;;;1.80;99.90;;;;;;4951278;29;20019;-77
2022/01/10 08:12:33;;;;;;;7.30;2.35;;;1.90;99.90;;;;;;4951287;29;20475;-76
2022/01/10 08:14:58;;;;;;;3.17;2.13;;;1.90;99.90;;;;;;4952537;29;20119;-77
2022/01/10 08:17:25;;;;;;;4.57;2.50;;;2.00;99.90;;;;;;4951257;29;20142;-77
2022/01/10 08:19:50;;;;;;;6.20;2.30;;;2.10;99.90;;;;;;4951831;29;20500;-77
2022/01/10 08:22:16;;;;;;;9.00;2.60;;;1.90;99.90;;;;;;4951495;29;20601;-77
2022/01/10 08:24:42;;;;;;;3.05;2.65;;;2.00;99.90;;;;;;4951050;29;20477;-77
2022/01/10 08:27:07;;;;;;;7.20;2.97;;;2.00;99.90;;;;;;4951482;29;20029;-77
2022/01/10 08:29:33;;;;;;;4.35;2.63;;;2.00;99.90;;;;;;4950971;29;20361;-77
2022/01/10 08:31:59;;;;;;;5.78;2.72;;;2.10;99.90;;;;;;4951467;29;20499;-77
2022/01/10 08:34:25;;;;;;;6.03;2.97;;;2.20;99.90;;;;;;4951491;29;20050;-76
2022/01/10 08:36:56;;;;;;;7.88;3.22;;;2.10;99.90;;;;;;4951277;29;20436;-77
2022/01/10 08:39:22;;;;;;;8.85;3.72;;;2.00;99.90;;;;;;4951109;29;20043;-77
2022/01/10 08:41:47;;;;;;;4.55;2.42;;;2.00;99.90;;;;;;4951281;29;20043;-77
2022/01/10 08:44:14;;;;;;;6.10;2.83;;;2.10;99.90;;;;;;4950997;29;20046;-77
2022/01/10 08:46:40;;;;;;;6.72;3.47;;;2.00;99.90;;;;;;4932963;29;20031;-77
2022/01/10 08:49:06;;;;;;;7.93;3.30;;;2.10;99.90;;;;;;4950430;29;20126;-77
2022/01/10 08:51:34;;;;;;;6.35;2.92;;;2.40;99.90;;;;;;4950732;29;20102;-77
2022/01/10 08:54:02;;;;;;;5.53;2.88;;;2.20;99.90;;;;;;4951085;29;20023;-77
2022/01/10 08:56:28;;;;;;;7.68;3.03;;;2.10;99.90;;;;;;4950494;29;20033;-77
2022/01/10 08:58:53;;;;;;;8.38;3.13;;;2.30;99.90;;;;;;4950712;28;20031;-77
2022/01/10 09:01:21;;;;;;;3.90;3.10;;;2.40;99.90;;;;;;4950801;29;20026;-77
2022/01/10 09:03:47;;;;;;;7.93;3.50;;;2.50;99.90;;;;;;4950706;29;20036;-77
2022/01/10 09:06:13;;;;;;;6.03;3.17;;;2.60;99.90;;;;;;4950577;29;20031;-77
2022/01/10 09:08:41;;;;;;;6.10;3.08;;;2.70;99.90;;;;;;4950533;29;20539;-76
2022/01/10 09:11:07;;;;;;;6.13;2.83;;;2.70;99.90;;;;;;4950430;28;20282;-77
2022/01/10 09:13:33;;;;;;;7.38;3.40;;;2.70;99.90;;;;;;4950545;29;20047;-77
2022/01/10 09:16:01;;;;;;;7.35;4.43;;;2.80;99.90;;;;;;4950340;29;20031;-77
2022/01/10 09:18:27;;;;;;;7.83;4.17;;;2.80;99.90;;;;;;4950200;28;20079;-77
2022/01/10 09:20:55;;;;;;;6.95;3.42;;;2.70;99.90;;;;;;4950233;28;20103;-77
2022/01/10 09:23:21;;;;;;;6.97;3.13;;;2.70;99.90;;;;;;4949911;28;20046;-77
2022/01/10 09:25:49;;;;;;;3.85;2.58;;;2.80;99.90;;;;;;4964936;28;20054;-77
2022/01/10 09:28:16;;;;;;;8.07;3.45;;;2.70;99.90;;;;;;4950664;28;20517;-78
2022/01/10 09:30:41;;;;;;;12.95;3.92;;;2.80;99.90;;;;;;4949944;28;20031;-77
2022/01/10 09:33:07;;;;;;;11.25;3.92;;;2.80;99.90;;;;;;4950213;29;20539;-77
2022/01/10 09:35:33;;;;;;;6.63;2.05;;;2.60;99.90;;;;;;4950127;28;20487;-77
2022/01/10 09:37:59;;;;;;;10.13;3.97;;;2.50;99.90;;;;;;4950591;28;20023;-77
2022/01/10 09:40:25;;;;;;;13.40;5.38;;;2.50;99.90;;;;;;4950439;28;20038;-76
2022/01/10 09:42:51;;;;;;;13.15;4.80;;;2.30;99.90;;;;;;4950086;28;20118;-77
2022/01/10 09:45:17;;;;;;;12.70;5.07;;;2.40;99.90;;;;;;4949617;28;20039;-79
2022/01/10 09:47:43;;;;;;;12.55;5.28;;;2.40;99.90;;;;;;4949908;29;20098;-77
2022/01/10 09:50:10;;;;;;;12.50;5.03;;;2.30;99.90;;;;;;4950364;29;20023;-77
2022/01/10 09:52:39;;;;;;;9.05;4.13;;;2.30;99.90;;;;;;4949908;28;20050;-77
2022/01/10 09:55:05;;;;;;;11.90;5.13;;;2.30;99.90;;;;;;4949837;28;20524;-76
2022/01/10 09:57:31;;;;;;;10.48;4.30;;;2.30;99.90;;;;;;4949336;28;20066;-77
2022/01/10 09:59:57;;;;;;;15.63;5.57;;;2.30;99.90;;;;;;4949914;29;20102;-77
2022/01/10 10:02:30;;;;;;;14.13;4.97;;;2.20;99.90;;;;;;4950261;29;20104;-77
2022/01/10 10:04:56;;;;;;;8.77;3.83;;;2.30;99.90;;;;;;4949921;29;20430;-76
2022/01/10 10:07:25;;;;;;;9.68;3.95;;;2.20;99.90;;;;;;4949737;29;20027;-77
2022/01/10 10:09:51;;;;;;;9.93;5.25;;;2.20;99.90;;;;;;4950305;29;20027;-77
2022/01/10 10:12:16;;;;;;;9.55;4.30;;;2.30;99.90;;;;;;4949857;29;20028;-77
2022/01/10 10:14:45;;;;;;;10.32;3.85;;;2.20;99.90;;;;;;4949240;29;20416;-76
2022/01/10 10:17:17;;;;;;;16.80;5.57;;;2.40;99.90;;;;;;4949477;29;20082;-76
2022/01/10 10:19:44;;;;;;;10.52;4.80;;;0.30;99.90;;;;;;4950241;29;20338;-76
2022/01/10 10:22:14;;;;;;;11.85;4.78;;;2.70;99.90;;;;;;4950135;29;20058;-76
2022/01/10 10:24:40;;;;;;;12.32;5.32;;;2.90;99.90;;;;;;4949991;29;20034;-74
2022/01/10 10:27:07;;;;;;;14.65;5.57;;;2.90;99.90;;;;;;4949479;29;20031;-76
2022/01/10 10:29:38;;;;;;;14.40;6.10;;;2.90;99.90;;;;;;4949043;29;20039;-77
2022/01/10 10:32:04;;;;;;;11.93;4.90;;;0.20;99.90;;;;;;4949803;29;20028;-76
2022/01/10 10:34:32;;;;;;;10.50;4.38;;;5.50;99.90;;;;;;4949561;29;20554;-76
2022/01/10 10:37:05;;;;;;;17.33;5.88;;;3.20;99.90;;;;;;4949578;29;20078;-77
2022/01/10 10:39:32;;;;;;;12.43;6.38;;;3.20;99.90;;;;;;4934182;29;20443;-77
2022/01/10 10:42:00;;;;;;;13.23;4.88;;;3.10;99.90;;;;;;4950201;29;20055;-77
2022/01/10 10:44:27;;;;;;;11.63;4.28;;;2.80;99.90;;;;;;4948886;29;20051;-77
2022/01/10 10:46:52;;;;;;;13.32;6.10;;;2.70;99.90;;;;;;4949303;29;20573;-77
2022/01/10 10:49:20;;;;;;;10.55;5.18;;;2.70;99.90;;;;;;4931803;29;20743;-76
2022/01/10 10:51:50;;;;;;;18.60;6.63;;;2.70;99.90;;;;;;4948960;29;20558;-77
2022/01/10 10:54:17;;;;;;;12.25;5.82;;;2.90;99.90;;;;;;4949282;29;20102;-76
2022/01/10 10:56:44;;;;;;;18.05;5.05;;;3.00;99.90;;;;;;4949407;29;20082;-76
2022/01/10 10:59:11;;;;;;;13.18;5.43;;;3.20;99.90;;;;;;4948708;28;20574;-76
2022/01/10 11:01:40;;;;;;;14.02;6.05;;;3.10;99.90;;;;;;4948776;28;20484;-76
2022/01/10 11:04:10;;;;;;;18.15;5.40;;;3.10;99.90;;;;;;4949075;28;20035;-76
2022/01/10 11:06:37;;;;;;;10.60;4.65;;;3.00;99.90;;;;;;4948830;28;20028;-77
2022/01/10 11:09:06;;;;;;;12.82;5.82;;;2.90;99.90;;;;;;4947359;28;20039;-77
2022/01/10 11:11:32;;;;;;;11.30;5.03;;;3.00;99.90;;;;;;4952194;29;20031;-77
2022/01/10 11:14:00;;;;;;;13.05;4.95;;;3.10;99.90;;;;;;4934994;29;20031;-77
2022/01/10 11:16:26;;;;;;;11.45;5.32;;;3.10;99.90;;;;;;4951775;29;20086;-76
2022/01/10 11:18:52;;;;;;;8.98;4.40;;;3.30;99.90;;;;;;4951900;29;20051;-76
2022/01/10 11:21:18;;;;;;;12.27;5.13;;;3.50;99.90;;;;;;4934524;29;20033;-76
2022/01/10 11:23:46;;;;;;;14.60;7.10;;;3.80;99.90;;;;;;4953846;29;20063;-76
2022/01/10 11:26:13;;;;;;;8.32;4.28;;;4.10;99.90;;;;;;4934750;29;20019;-76
2022/01/10 11:28:47;;;;;;;8.07;3.97;;;4.20;99.90;;;;;;4951995;29;20024;-76
2022/01/10 11:31:19;;;;;;;9.18;4.03;;;3.80;99.90;;;;;;4951567;29;20073;-76
2022/01/10 11:33:46;;;;;;;13.80;5.72;;;3.80;99.90;;;;;;4951886;29;20452;-76
2022/01/10 11:36:13;;;;;;;13.13;4.57;;;3.90;99.90;;;;;;4951995;29;20058;-76
2022/01/10 11:38:56;;;;;;;6.10;3.40;;;3.90;99.90;;;;;;4951747;29;20028;-76
2022/01/10 11:41:28;;;;;;;10.43;4.35;;;3.80;99.90;;;;;;4948830;29;20027;-76
2022/01/10 11:43:54;;;;;;;13.30;4.10;;;3.50;99.90;;;;;;4951547;28;20160;-77
2022/01/10 11:46:39;;;;;;;7.47;4.30;;;3.30;99.90;;;;;;4951332;28;20136;-76
2022/01/10 11:49:13;;;;;;;9.13;4.45;;;3.20;99.90;;;;;;4950999;28;20035;-76
2022/01/10 11:51:43;;;;;;;7.32;3.22;;;3.20;99.90;;;;;;4949824;29;20260;-77
2022/01/10 11:54:32;;;;;;;8.20;4.28;;;3.40;99.90;;;;;;4951063;28;20019;-77
2022/01/10 11:57:00;;;;;;;8.02;3.78;;;3.50;99.90;;;;;;4944435;29;20027;-77
2022/01/10 11:59:26;;;;;;;9.75;5.07;;;3.50;99.90;;;;;;4950115;29;20058;-76
2022/01/10 12:01:57;;;;;;;26.60;7.75;;;3.60;99.90;;;;;;4950203;29;20487;-76
2022/01/10 12:04:23;;;;;;;7.35;4.18;;;3.70;99.90;;;;;;4951979;29;20035;-76
2022/01/10 12:06:51;;;;;;;7.40;4.07;;;3.80;99.90;;;;;;4953501;29;20038;-77
2022/01/10 12:09:17;;;;;;;5.50;2.97;;;4.00;99.90;;;;;;4935394;29;20030;-76
2022/01/10 12:11:45;;;;;;;7.72;3.20;;;4.30;99.90;;;;;;4951461;29;20078;-76
2022/01/10 12:14:11;;;;;;;11.98;4.93;;;4.40;99.90;;;;;;4951899;29;20032;-76
2022/01/10 12:16:38;;;;;;;8.93;4.82;;;4.30;99.90;;;;;;4953333;29;20062;-76
2022/01/10 12:19:05;;;;;;;11.20;4.60;;;4.40;99.90;;;;;;4951851;29;20166;-76
2022/01/10 12:21:32;;;;;;;5.35;4.00;;;4.50;99.90;;;;;;4950751;28;20030;-76
2022/01/10 12:23:57;;;;;;;7.63;3.10;;;4.70;99.90;;;;;;4950846;29;20139;-76
2022/01/10 12:26:24;;;;;;;5.88;2.88;;;4.80;99.90;;;;;;4951011;29;20096;-77
2022/01/10 12:28:56;;;;;;;5.38;2.97;;;5.10;99.90;;;;;;4951166;29;20506;-76
2022/01/10 12:31:23;;;;;;;4.18;2.63;;;5.20;99.90;;;;;;4949341;29;20110;-77
2022/01/10 12:33:50;;;;;;;6.68;2.92;;;5.30;99.90;;;;;;4952242;29;20057;-77
2022/01/10 12:36:21;;;;;;;7.78;3.47;;;5.70;99.90;;;;;;4952730;29;20070;-76
2022/01/10 12:38:51;;;;;;;7.18;3.35;;;7.10;99.90;;;;;;4951961;29;20109;-77
2022/01/10 12:41:19;;;;;;;5.50;2.70;;;5.90;99.90;;;;;;4934737;29;20547;-77
2022/01/10 12:43:49;;;;;;;5.03;2.60;;;5.70;99.90;;;;;;4933506;29;20050;-77
2022/01/10 12:46:16;;;;;;;4.05;2.70;;;5.20;99.90;;;;;;4950379;29;20019;-77
2022/01/10 12:48:47;;;;;;;3.60;1.98;;;4.80;99.90;;;;;;4949068;29;20028;-77
2022/01/10 12:51:18;;;;;;;4.32;2.25;;;4.70;99.90;;;;;;4933587;29;20621;-77
2022/01/10 12:53:47;;;;;;;2.20;1.65;;;4.80;99.90;;;;;;4950398;29;20112;-77
2022/01/10 12:56:18;;;;;;;3.78;2.55;;;4.90;99.90;;;;;;4950823;29;20062;-77
2022/01/10 12:58:44;;;;;;;4.00;3.20;;;4.50;99.90;;;;;;4951022;28;20031;-76
2022/01/10 13:01:11;;;;;;;5.65;2.20;;;4.30;99.90;;;;;;4950548;29;20031;-77
2022/01/10 13:03:38;;;;;;;4.95;1.90;;;4.30;99.90;;;;;;4949954;28;20031;-76
2022/01/10 13:06:05;;;;;;;4.05;1.88;;;4.00;99.90;;;;;;4949075;29;20043;-76
2022/01/10 13:08:37;;;;;;;8.55;3.00;;;3.90;99.90;;;;;;4951062;28;20071;-77